Balmorhea, Texas
Current Conditions -  °F | °C
As of 6:55 PM on Friday 28 Nov 2014 (Local Time) from KPEQ Reporting Station
Clear Clear  
Wind Chill: 62°   Ceiling: Unl
Heat Index: 62°   Visibility: 10mi
Dew Point: 21°   Wind: 7mph
Humidity: 21%   Direction: 210°SSW
Pressure: 30.02"   Gusts: NA
Location:  30.98°N, 103.74°W
Report Text: KPEQ 290055Z AUTO 21006KT 10SM CLR 17/M06 A3002 RMK AO2 T01651062
Loading
Personal Weather Stations






























Interactive Weather Map New forecast layout! Learn more

10-Day Weather Forecast

Advertisements
Track Severe Weather on mobile